createdAt,value
2023-05-08T00:02:16.043Z,9.65
2023-05-08T00:04:43.358Z,8.65
2023-05-08T00:07:11.069Z,9.40
2023-05-08T00:09:38.333Z,9.30
2023-05-08T00:12:05.877Z,8.45
2023-05-08T00:14:33.112Z,9.57
2023-05-08T00:17:00.495Z,5.68
2023-05-08T00:19:27.886Z,8.95
2023-05-08T00:21:55.084Z,7.88
2023-05-08T00:24:22.535Z,11.00
2023-05-08T00:26:49.892Z,4.65
2023-05-08T00:29:17.148Z,8.23
2023-05-08T00:31:44.427Z,6.93
2023-05-08T00:34:11.722Z,7.70
2023-05-08T00:36:38.977Z,8.77
2023-05-08T00:39:06.124Z,11.82
2023-05-08T00:41:33.293Z,8.82
2023-05-08T00:44:00.950Z,7.68
2023-05-08T00:46:28.275Z,10.00
2023-05-08T00:48:55.720Z,8.35
2023-05-08T00:51:24.374Z,10.18
2023-05-08T00:53:51.981Z,6.70
2023-05-08T00:56:21.369Z,7.95
2023-05-08T00:58:48.955Z,11.10
2023-05-08T01:01:16.458Z,10.93
2023-05-08T01:03:45.054Z,8.23
2023-05-08T01:06:12.710Z,8.15
2023-05-08T01:08:40.567Z,10.65
2023-05-08T01:11:43.537Z,7.07
2023-05-08T01:14:21.623Z,9.25
2023-05-08T01:16:56.093Z,5.32
2023-05-08T01:19:35.653Z,8.73
2023-05-08T01:22:21.634Z,6.13
2023-05-08T01:25:07.938Z,5.95
2023-05-08T01:27:51.725Z,9.25
2023-05-08T01:30:48.257Z,7.63
2023-05-08T01:33:37.258Z,6.35
2023-05-08T01:36:29.808Z,8.60
2023-05-08T01:39:15.045Z,6.68
2023-05-08T01:41:55.987Z,4.78
2023-05-08T01:44:28.905Z,7.18
2023-05-08T01:46:57.257Z,8.93
2023-05-08T01:49:28.231Z,8.48
2023-05-08T01:52:03.964Z,6.20
2023-05-08T01:57:04.795Z,5.50
2023-05-08T01:59:35.556Z,4.70
2023-05-08T02:02:04.119Z,6.28
2023-05-08T02:04:33.632Z,4.28
2023-05-08T02:07:01.892Z,8.18
2023-05-08T02:09:30.687Z,6.45
2023-05-08T02:12:00.996Z,6.18
2023-05-08T02:14:30.146Z,6.57
2023-05-08T02:16:59.472Z,4.97
2023-05-08T02:19:29.228Z,7.68
2023-05-08T02:21:58.652Z,4.88
2023-05-08T02:24:26.457Z,6.57
2023-05-08T02:26:56.125Z,10.82
2023-05-08T02:29:24.749Z,5.45
2023-05-08T02:31:54.320Z,5.28
2023-05-08T02:34:24.522Z,6.53
2023-05-08T02:36:53.883Z,8.70
2023-05-08T02:39:25.354Z,4.78
2023-05-08T02:41:52.751Z,6.60
2023-05-08T02:44:20.215Z,5.82
2023-05-08T02:47:00.881Z,3.33
2023-05-08T02:49:48.994Z,5.50
2023-05-08T02:52:31.171Z,7.43
2023-05-08T02:55:04.706Z,5.38
2023-05-08T02:57:43.694Z,10.65
2023-05-08T03:00:20.833Z,9.30
2023-05-08T03:03:00.247Z,7.25
2023-05-08T03:05:31.888Z,4.55
2023-05-08T03:08:20.929Z,5.45
2023-05-08T03:10:52.745Z,5.68
2023-05-08T03:13:21.605Z,6.20
2023-05-08T03:15:55.516Z,9.00
2023-05-08T03:18:31.477Z,7.00
2023-05-08T03:23:29.409Z,6.20
2023-05-08T03:25:59.396Z,5.10
2023-05-08T03:28:28.662Z,5.05
2023-05-08T03:30:59.676Z,6.65
2023-05-08T03:33:28.135Z,5.18
2023-05-08T03:35:57.738Z,8.07
2023-05-08T03:38:25.436Z,5.88
2023-05-08T03:40:53.482Z,6.43
2023-05-08T03:43:21.703Z,6.13
2023-05-08T03:45:50.730Z,5.50
2023-05-08T03:48:19.339Z,5.90
2023-05-08T03:50:47.512Z,6.78
2023-05-08T03:53:14.966Z,6.18
2023-05-08T03:55:42.262Z,6.43
2023-05-08T03:58:50.614Z,6.75
2023-05-08T04:01:28.766Z,8.57
2023-05-08T04:03:56.422Z,5.25
2023-05-08T04:06:42.002Z,6.88
2023-05-08T04:09:26.192Z,4.95
2023-05-08T04:12:02.161Z,3.67
2023-05-08T04:14:37.579Z,4.38
2023-05-08T04:17:09.788Z,6.65
2023-05-08T04:19:44.288Z,6.78
2023-05-08T04:24:44.367Z,6.35
2023-05-08T04:27:13.672Z,6.15
2023-05-08T04:29:41.749Z,7.97
2023-05-08T04:32:10.760Z,8.60
2023-05-08T04:34:38.586Z,5.50
2023-05-08T04:37:08.069Z,5.38
2023-05-08T04:39:36.060Z,6.78
2023-05-08T04:42:04.881Z,5.20
2023-05-08T04:44:34.539Z,5.38
2023-05-08T04:47:01.862Z,6.85
2023-05-08T04:49:29.111Z,6.18
2023-05-08T04:51:56.515Z,8.32
2023-05-08T04:54:23.831Z,9.25
2023-05-08T04:56:51.201Z,5.22
2023-05-08T04:59:18.728Z,7.38
2023-05-08T05:01:47.862Z,7.68
2023-05-08T05:04:15.182Z,7.63
2023-05-08T05:06:42.571Z,5.93
2023-05-08T05:09:10.533Z,6.70
2023-05-08T05:11:37.735Z,4.45
2023-05-08T05:14:04.998Z,8.98
2023-05-08T05:16:32.278Z,7.03
2023-05-08T05:18:59.941Z,7.68
2023-05-08T05:21:27.976Z,4.65
2023-05-08T05:23:55.765Z,6.43
2023-05-08T05:26:23.402Z,7.22
2023-05-08T05:28:51.154Z,5.25
2023-05-08T05:31:19.287Z,5.72
2023-05-08T05:33:47.141Z,4.65
2023-05-08T05:36:14.364Z,6.43
2023-05-08T05:38:41.806Z,3.05
2023-05-08T05:41:09.178Z,5.90
2023-05-08T05:43:36.497Z,6.13
2023-05-08T05:46:07.531Z,4.38
2023-05-08T05:48:35.439Z,9.40
2023-05-08T05:51:03.812Z,6.35
2023-05-08T05:53:31.046Z,5.15
2023-05-08T05:55:58.489Z,4.53
2023-05-08T05:58:25.857Z,8.93
2023-05-08T06:00:53.597Z,6.97
2023-05-08T06:03:20.937Z,9.45
2023-05-08T06:05:48.552Z,7.85
2023-05-08T06:08:17.950Z,7.82
2023-05-08T06:10:45.208Z,9.82
2023-05-08T06:13:13.128Z,10.90
2023-05-08T06:15:41.075Z,10.60
2023-05-08T06:18:08.376Z,9.68
2023-05-08T06:20:38.579Z,13.15
2023-05-08T06:23:06.647Z,8.32
2023-05-08T06:25:33.865Z,9.73
2023-05-08T06:28:01.048Z,7.68
2023-05-08T06:30:28.294Z,11.18
2023-05-08T06:32:55.581Z,9.80
2023-05-08T06:35:22.837Z,8.77
2023-05-08T06:37:50.083Z,7.47
2023-05-08T06:40:17.365Z,9.30
2023-05-08T06:42:44.629Z,7.05
2023-05-08T06:45:12.886Z,8.88
2023-05-08T06:47:40.620Z,7.65
2023-05-08T06:50:08.180Z,8.13
2023-05-08T06:52:35.374Z,5.07
2023-05-08T06:55:02.595Z,5.50
2023-05-08T06:57:30.488Z,8.95
2023-05-08T06:59:57.879Z,8.10
2023-05-08T07:02:25.158Z,7.55
2023-05-08T07:04:52.485Z,10.52
2023-05-08T07:07:19.664Z,3.67
2023-05-08T07:09:46.905Z,7.18
2023-05-08T07:12:16.665Z,6.65
2023-05-08T07:14:43.944Z,6.97
2023-05-08T07:17:11.195Z,7.07
2023-05-08T07:19:38.928Z,8.82
2023-05-08T07:22:06.647Z,6.72
2023-05-08T07:24:34.109Z,4.53
2023-05-08T07:27:05.296Z,10.30
2023-05-08T07:29:37.160Z,4.18
2023-05-08T07:34:35.169Z,7.05
2023-05-08T07:37:02.767Z,3.40
2023-05-08T07:39:29.983Z,4.40
2023-05-08T07:41:57.266Z,5.93
2023-05-08T07:44:24.435Z,6.40
2023-05-08T07:46:52.745Z,6.22
2023-05-08T07:49:20.076Z,3.00
2023-05-08T07:51:47.307Z,7.03
2023-05-08T07:54:14.542Z,5.75
2023-05-08T07:56:41.788Z,5.18
2023-05-08T07:59:09.045Z,6.03
2023-05-08T08:01:36.431Z,7.95
2023-05-08T08:04:04.043Z,8.27
2023-05-08T08:06:31.880Z,7.18
2023-05-08T08:08:59.044Z,6.00
2023-05-08T08:11:26.292Z,8.25
2023-05-08T08:13:53.495Z,5.80
2023-05-08T08:16:20.815Z,5.10
2023-05-08T08:18:48.236Z,9.52
2023-05-08T08:21:15.596Z,5.55
2023-05-08T08:23:42.855Z,8.13
2023-05-08T08:26:10.956Z,5.35
2023-05-08T08:28:38.306Z,5.65
2023-05-08T08:31:05.569Z,4.95
2023-05-08T08:33:32.802Z,7.18
2023-05-08T08:36:03.832Z,4.57
2023-05-08T08:38:31.127Z,8.95
2023-05-08T08:40:58.341Z,13.27
2023-05-08T08:43:25.672Z,5.47
2023-05-08T08:45:53.178Z,7.45
2023-05-08T08:48:21.875Z,2.78
2023-05-08T08:50:53.434Z,3.97
2023-05-08T08:53:29.559Z,7.10
2023-05-08T08:56:00.828Z,4.50
2023-05-08T08:58:33.373Z,3.95
2023-05-08T09:01:01.955Z,7.45
2023-05-08T09:03:30.846Z,3.92
2023-05-08T09:06:01.525Z,3.55
2023-05-08T09:08:29.069Z,4.75
2023-05-08T09:10:56.585Z,4.10
2023-05-08T09:13:23.849Z,4.80
2023-05-08T09:15:51.258Z,9.80
2023-05-08T09:18:19.400Z,13.75
2023-05-08T09:20:47.080Z,4.35
2023-05-08T09:23:17.371Z,1.30
2023-05-08T09:25:46.497Z,6.85
2023-05-08T09:28:18.640Z,4.57
2023-05-08T09:30:51.370Z,3.72
2023-05-08T09:33:19.017Z,6.53
2023-05-08T09:35:48.575Z,18.70
2023-05-08T09:38:35.581Z,14.25
2023-05-08T09:41:14.444Z,5.10
2023-05-08T09:43:43.064Z,3.55
2023-05-08T09:46:19.291Z,7.50
2023-05-08T09:48:46.593Z,9.43
2023-05-08T09:51:13.887Z,8.52
2023-05-08T09:53:41.352Z,6.13
2023-05-08T09:56:08.645Z,8.02
2023-05-08T09:58:54.034Z,3.78
2023-05-08T10:01:33.529Z,2.65
2023-05-08T10:04:01.588Z,4.38
2023-05-08T10:06:29.520Z,4.40
2023-05-08T10:09:13.076Z,7.50
2023-05-08T10:11:53.636Z,4.40
2023-05-08T10:14:22.331Z,3.47
2023-05-08T10:16:54.387Z,4.28
2023-05-08T10:19:24.126Z,9.50
2023-05-08T10:21:53.262Z,8.18
2023-05-08T10:24:33.948Z,3.83
2023-05-08T10:27:13.971Z,5.90
2023-05-08T10:29:55.608Z,4.13
2023-05-08T10:32:24.739Z,7.68
2023-05-08T10:35:00.420Z,2.20
2023-05-08T10:37:30.251Z,2.78
2023-05-08T10:39:58.776Z,5.45
2023-05-08T10:42:27.764Z,7.57
2023-05-08T10:44:55.686Z,4.85
2023-05-08T10:47:54.664Z,5.15
2023-05-08T10:50:47.207Z,7.82
2023-05-08T10:53:34.752Z,3.95
2023-05-08T10:56:02.164Z,4.13
2023-05-08T10:58:34.256Z,3.83
2023-05-08T11:01:04.302Z,5.85
2023-05-08T11:03:33.492Z,7.30
2023-05-08T11:06:01.842Z,3.95
2023-05-08T11:08:30.752Z,3.47
2023-05-08T11:11:10.370Z,8.13
2023-05-08T11:13:40.920Z,3.47
2023-05-08T11:16:10.302Z,6.15
2023-05-08T11:18:49.258Z,5.53
2023-05-08T11:21:24.248Z,4.78
2023-05-08T11:26:49.205Z,4.15
2023-05-08T11:29:17.868Z,5.28
2023-05-08T11:31:52.710Z,4.75
2023-05-08T11:34:38.823Z,2.15
2023-05-08T11:37:10.787Z,2.78
2023-05-08T11:39:38.307Z,2.00
2023-05-08T11:42:27.421Z,4.07
2023-05-08T11:45:06.820Z,2.60
2023-05-08T11:47:38.371Z,7.30
2023-05-08T11:50:06.391Z,2.50
2023-05-08T11:52:37.852Z,3.92
2023-05-08T11:55:10.633Z,3.70
2023-05-08T11:57:38.231Z,3.22
2023-05-08T12:00:11.773Z,3.78
2023-05-08T12:02:41.545Z,1.25
2023-05-08T12:05:10.664Z,1.58
2023-05-08T12:07:48.217Z,2.10
2023-05-08T12:10:17.111Z,4.25
2023-05-08T12:12:45.540Z,2.60
2023-05-08T12:15:16.121Z,2.83
2023-05-08T12:17:43.694Z,2.35
2023-05-08T12:20:16.415Z,1.00
2023-05-08T12:22:50.902Z,1.13
2023-05-08T12:25:18.717Z,3.53
2023-05-08T12:27:46.292Z,0.95
2023-05-08T12:30:15.050Z,2.20
2023-05-08T12:32:43.970Z,1.83
2023-05-08T12:35:12.571Z,2.97
2023-05-08T12:37:40.334Z,2.67
2023-05-08T12:40:08.741Z,1.13
2023-05-08T12:43:03.205Z,1.95
2023-05-08T12:45:33.903Z,1.02
2023-05-08T12:48:05.859Z,1.80
2023-05-08T12:50:41.270Z,0.65
2023-05-08T12:53:16.608Z,2.70
2023-05-08T12:55:57.659Z,1.80
2023-05-08T12:58:27.342Z,3.00
2023-05-08T13:01:10.149Z,1.25
2023-05-08T13:03:38.000Z,1.88
2023-05-08T13:06:05.788Z,1.75
2023-05-08T13:08:38.138Z,1.20
2023-05-08T13:11:06.725Z,0.95
2023-05-08T13:13:35.946Z,2.30
2023-05-08T13:16:05.277Z,1.40
2023-05-08T13:18:33.789Z,0.63
2023-05-08T13:21:02.306Z,1.02
2023-05-08T13:23:29.579Z,2.90
2023-05-08T13:25:57.078Z,2.20
2023-05-08T13:28:24.311Z,0.85
2023-05-08T13:30:51.517Z,0.80
2023-05-08T13:33:18.788Z,0.80
2023-05-08T13:35:46.084Z,1.20
2023-05-08T13:38:13.341Z,0.63
2023-05-08T13:40:40.729Z,4.90
2023-05-08T13:43:07.951Z,0.57
2023-05-08T13:45:35.336Z,0.52
2023-05-08T13:48:02.780Z,4.20
2023-05-08T13:50:30.156Z,1.85
2023-05-08T13:52:57.429Z,0.95
2023-05-08T13:55:24.811Z,1.10
2023-05-08T13:57:52.068Z,1.60
2023-05-08T14:00:19.727Z,1.58
2023-05-08T14:02:47.476Z,2.78
2023-05-08T14:05:15.762Z,1.77
2023-05-08T14:07:43.916Z,0.98
2023-05-08T14:10:11.430Z,0.63
2023-05-08T14:12:39.933Z,2.33
2023-05-08T14:15:07.965Z,1.05
2023-05-08T14:17:35.419Z,1.08
2023-05-08T14:20:02.757Z,3.35
2023-05-08T14:22:31.739Z,1.08
2023-05-08T14:24:59.115Z,2.63
2023-05-08T14:27:26.352Z,0.80
2023-05-08T14:29:54.265Z,1.27
2023-05-08T14:32:21.679Z,1.88
2023-05-08T14:34:49.205Z,1.08
2023-05-08T14:37:17.748Z,2.15
2023-05-08T14:39:45.614Z,0.68
2023-05-08T14:44:43.041Z,0.82
2023-05-08T14:47:10.318Z,1.48
2023-05-08T14:49:38.751Z,1.15
2023-05-08T14:52:07.438Z,0.40
2023-05-08T14:54:34.815Z,2.65
2023-05-08T14:57:02.463Z,0.95
2023-05-08T14:59:29.666Z,1.13
2023-05-08T15:01:56.992Z,1.10
2023-05-08T15:04:24.430Z,0.93
2023-05-08T15:06:51.709Z,3.30
2023-05-08T15:09:18.980Z,0.73
2023-05-08T15:11:46.183Z,2.47
2023-05-08T15:14:13.532Z,1.55
2023-05-08T15:16:40.831Z,3.70
2023-05-08T15:19:09.833Z,0.77
2023-05-08T15:21:37.057Z,1.77
2023-05-08T15:24:04.512Z,2.38
2023-05-08T15:26:31.701Z,1.33
2023-05-08T15:28:58.966Z,2.75
2023-05-08T15:31:26.278Z,3.92
2023-05-08T15:33:53.466Z,1.65
2023-05-08T15:36:21.071Z,1.60
2023-05-08T15:38:50.980Z,2.50
2023-05-08T15:41:18.229Z,2.95
2023-05-08T15:43:46.495Z,1.52
2023-05-08T15:46:13.795Z,2.75
2023-05-08T15:48:41.075Z,1.17
2023-05-08T15:51:12.012Z,2.10
2023-05-08T15:53:39.672Z,2.47
2023-05-08T15:56:07.106Z,5.25
2023-05-08T15:58:36.658Z,2.72
2023-05-08T16:01:05.166Z,1.83
2023-05-08T16:03:33.534Z,2.47
2023-05-08T16:06:00.921Z,2.38
2023-05-08T16:08:29.511Z,6.70
2023-05-08T16:10:56.931Z,2.90
2023-05-08T16:13:25.568Z,2.83
2023-05-08T16:15:52.990Z,3.75
2023-05-08T16:18:20.458Z,0.85
2023-05-08T16:20:47.814Z,1.45
2023-05-08T16:23:15.078Z,6.32
2023-05-08T16:25:42.269Z,2.13
2023-05-08T16:28:09.537Z,1.90
2023-05-08T16:30:36.842Z,1.85
2023-05-08T16:33:05.449Z,6.53
2023-05-08T16:35:33.651Z,1.95
2023-05-08T16:38:04.825Z,3.80
2023-05-08T16:40:32.076Z,2.97
2023-05-08T16:42:59.387Z,1.65
2023-05-08T16:45:26.779Z,4.97
2023-05-08T16:47:55.512Z,2.92
2023-05-08T16:50:29.462Z,1.50
2023-05-08T16:52:57.726Z,2.05
2023-05-08T16:55:25.123Z,1.60
2023-05-08T16:57:55.242Z,2.38
2023-05-08T17:00:23.113Z,1.23
2023-05-08T17:02:50.411Z,1.42
2023-05-08T17:05:17.722Z,1.85
2023-05-08T17:07:44.936Z,1.38
2023-05-08T17:10:12.875Z,4.07
2023-05-08T17:12:40.156Z,3.42
2023-05-08T17:15:07.987Z,0.80
2023-05-08T17:17:35.308Z,2.08
2023-05-08T17:20:02.625Z,3.03
2023-05-08T17:22:30.008Z,0.80
2023-05-08T17:24:57.323Z,2.15
2023-05-08T17:27:24.589Z,0.82
2023-05-08T17:29:51.851Z,1.42
2023-05-08T17:32:19.287Z,3.72
2023-05-08T17:34:46.643Z,0.73
2023-05-08T17:37:14.010Z,0.45
2023-05-08T17:39:41.312Z,1.08
2023-05-08T17:42:09.003Z,0.77
2023-05-08T17:44:36.879Z,2.17
2023-05-08T17:47:04.176Z,0.30
2023-05-08T17:49:31.473Z,1.27
2023-05-08T17:51:58.720Z,0.70
2023-05-08T17:54:25.983Z,0.20
2023-05-08T17:56:53.254Z,1.48
2023-05-08T17:59:20.502Z,1.88
2023-05-08T18:01:47.926Z,2.83
2023-05-08T18:04:15.407Z,0.77
2023-05-08T18:06:43.572Z,0.20
2023-05-08T18:09:10.824Z,1.90
2023-05-08T18:11:38.203Z,0.93
2023-05-08T18:14:05.524Z,0.82
2023-05-08T18:16:32.825Z,1.00
2023-05-08T18:19:00.093Z,1.33
2023-05-08T18:21:28.839Z,0.73
2023-05-08T18:23:56.068Z,2.30
2023-05-08T18:26:23.327Z,0.50
2023-05-08T18:28:50.620Z,1.73
2023-05-08T18:31:17.852Z,1.40
2023-05-08T18:33:45.173Z,1.98
2023-05-08T18:36:12.450Z,0.77
2023-05-08T18:38:41.714Z,0.70
2023-05-08T18:41:09.095Z,1.20
2023-05-08T18:43:36.326Z,0.30
2023-05-08T18:46:14.628Z,2.50
2023-05-08T18:48:41.900Z,1.13
2023-05-08T18:51:09.732Z,0.82
2023-05-08T18:53:38.560Z,1.85
2023-05-08T18:56:06.165Z,1.02
2023-05-08T18:58:33.519Z,0.73
2023-05-08T19:01:01.422Z,1.70
2023-05-08T19:03:28.995Z,0.50
2023-05-08T19:05:56.334Z,1.02
2023-05-08T19:08:23.840Z,1.88
2023-05-08T19:10:51.114Z,0.85
2023-05-08T19:13:18.433Z,2.03
2023-05-08T19:15:45.875Z,1.00
2023-05-08T19:18:14.201Z,0.85
2023-05-08T19:20:41.507Z,1.05
2023-05-08T19:23:09.001Z,1.40
2023-05-08T19:25:36.335Z,1.10
2023-05-08T19:28:04.777Z,1.25
2023-05-08T19:30:31.953Z,3.63
2023-05-08T19:32:59.202Z,2.00
2023-05-08T19:35:26.539Z,2.10
2023-05-08T19:37:53.799Z,2.15
2023-05-08T19:40:21.170Z,0.88
2023-05-08T19:42:48.577Z,0.70
2023-05-08T19:45:16.547Z,0.52
2023-05-08T19:47:48.147Z,0.98
2023-05-08T19:50:18.151Z,0.35
2023-05-08T19:52:49.295Z,0.77
2023-05-08T19:55:17.198Z,0.28
2023-05-08T19:57:44.828Z,0.30
2023-05-08T20:00:13.064Z,0.35
2023-05-08T20:02:40.548Z,0.40
2023-05-08T20:07:38.287Z,0.90
2023-05-08T20:10:06.099Z,1.23
2023-05-08T20:12:33.355Z,1.08
2023-05-08T20:15:00.590Z,0.30
2023-05-08T20:17:27.894Z,1.30
2023-05-08T20:19:55.242Z,1.38
2023-05-08T20:22:22.518Z,0.60
2023-05-08T20:24:49.789Z,1.45
2023-05-08T20:27:17.084Z,0.50
2023-05-08T20:29:45.352Z,1.00
2023-05-08T20:32:14.995Z,0.70
2023-05-08T20:34:42.371Z,2.00
2023-05-08T20:37:09.652Z,1.08
2023-05-08T20:39:36.929Z,1.52
2023-05-08T20:42:04.256Z,1.58
2023-05-08T20:44:31.501Z,3.95
2023-05-08T20:46:58.704Z,2.63
2023-05-08T20:49:26.185Z,3.35
2023-05-08T20:51:53.382Z,2.03
2023-05-08T20:54:21.490Z,2.50
2023-05-08T20:56:48.700Z,4.28
2023-05-08T20:59:16.788Z,2.20
2023-05-08T21:01:44.066Z,3.08
2023-05-08T21:04:11.545Z,3.55
2023-05-08T21:06:38.747Z,2.10
2023-05-08T21:09:06.995Z,5.20
2023-05-08T21:11:34.621Z,2.72
2023-05-08T21:14:01.851Z,4.55
2023-05-08T21:16:29.087Z,5.45
2023-05-08T21:18:58.444Z,2.67
2023-05-08T21:21:25.860Z,1.60
2023-05-08T21:23:53.494Z,2.60
2023-05-08T21:26:23.574Z,2.25
2023-05-08T21:28:52.591Z,3.20
2023-05-08T21:31:20.443Z,3.45
2023-05-08T21:33:47.753Z,3.08
2023-05-08T21:36:15.189Z,3.45
2023-05-08T21:38:42.585Z,6.30
2023-05-08T21:41:09.862Z,1.45
2023-05-08T21:43:37.420Z,2.38
2023-05-08T21:46:06.855Z,1.98
2023-05-08T21:48:35.076Z,4.00
2023-05-08T21:51:02.960Z,2.25
2023-05-08T21:53:30.202Z,1.40
2023-05-08T21:55:57.753Z,1.40
2023-05-08T21:58:25.479Z,3.55
2023-05-08T22:00:53.158Z,2.67
2023-05-08T22:03:20.680Z,2.75
2023-05-08T22:05:48.319Z,1.58
2023-05-08T22:08:16.339Z,5.05
2023-05-08T22:10:44.461Z,5.72
2023-05-08T22:13:12.742Z,2.60
2023-05-08T22:15:40.180Z,2.95
2023-05-08T22:18:07.812Z,2.95
2023-05-08T22:20:35.290Z,2.13
2023-05-08T22:23:02.841Z,5.05
2023-05-08T22:25:30.230Z,2.05
2023-05-08T22:27:57.523Z,4.88
2023-05-08T22:30:24.987Z,4.57
2023-05-08T22:32:57.521Z,2.33
2023-05-08T22:35:27.384Z,3.08
2023-05-08T22:37:55.351Z,2.13
2023-05-08T22:40:22.766Z,2.00
2023-05-08T22:42:52.089Z,2.83
2023-05-08T22:45:20.039Z,2.13
2023-05-08T22:47:47.492Z,1.90
2023-05-08T22:50:14.902Z,1.88
2023-05-08T22:52:42.211Z,0.77
2023-05-08T22:55:09.825Z,2.38
2023-05-08T22:57:37.047Z,1.40
2023-05-08T23:00:06.543Z,0.70
2023-05-08T23:02:34.986Z,1.40
2023-05-08T23:05:02.582Z,0.68
2023-05-08T23:07:30.031Z,1.92
2023-05-08T23:09:57.504Z,1.35
2023-05-08T23:12:24.918Z,2.83
2023-05-08T23:14:52.774Z,0.40
2023-05-08T23:17:20.094Z,0.40
2023-05-08T23:19:47.388Z,1.48
2023-05-08T23:22:14.963Z,0.40
2023-05-08T23:24:42.378Z,0.65
2023-05-08T23:27:09.705Z,0.38
2023-05-08T23:29:36.950Z,1.13
2023-05-08T23:32:04.389Z,0.63
2023-05-08T23:34:32.023Z,1.17
2023-05-08T23:37:01.380Z,1.85
2023-05-08T23:39:28.829Z,0.68
2023-05-08T23:41:56.288Z,0.85
2023-05-08T23:44:23.754Z,1.00
2023-05-08T23:46:51.417Z,0.75
2023-05-08T23:49:18.767Z,0.10
2023-05-08T23:51:46.344Z,1.05
2023-05-08T23:54:13.829Z,1.40
2023-05-08T23:56:41.270Z,0.65
2023-05-08T23:59:08.769Z,1.40
